createdAt,value
2022-11-27T00:01:01.104Z,99734.44
2022-11-27T00:03:28.372Z,99738.00
2022-11-27T00:05:58.237Z,99736.03
2022-11-27T00:08:25.602Z,99727.97
2022-11-27T00:10:52.194Z,99720.25
2022-11-27T00:13:18.856Z,99715.06
2022-11-27T00:15:45.690Z,99715.00
2022-11-27T00:18:12.723Z,99715.16
2022-11-27T00:20:39.565Z,99711.38
2022-11-27T00:23:06.230Z,99699.63
2022-11-27T00:25:32.781Z,99688.41
2022-11-27T00:27:59.457Z,99692.63
2022-11-27T00:30:25.996Z,99682.31
2022-11-27T00:32:52.594Z,99674.38
2022-11-27T00:35:19.153Z,99677.13
2022-11-27T00:37:45.779Z,99672.63
2022-11-27T00:40:12.629Z,99671.59
2022-11-27T00:42:39.232Z,99671.16
2022-11-27T00:45:06.105Z,99668.28
2022-11-27T00:47:32.697Z,99686.31
2022-11-27T00:49:59.222Z,99691.16
2022-11-27T00:52:25.802Z,99698.75
2022-11-27T00:54:52.419Z,99698.03
2022-11-27T00:57:19.021Z,99696.22
2022-11-27T00:59:45.671Z,99695.34
2022-11-27T01:02:12.286Z,99691.16
2022-11-27T01:04:39.146Z,99692.84
2022-11-27T01:07:05.858Z,99686.47
2022-11-27T01:09:32.611Z,99683.81
2022-11-27T01:11:59.194Z,99688.16
2022-11-27T01:14:25.737Z,99689.81
2022-11-27T01:16:52.325Z,99686.47
2022-11-27T01:19:19.519Z,99697.59
2022-11-27T01:21:46.485Z,99699.16
2022-11-27T01:24:14.943Z,99713.81
2022-11-27T01:26:42.824Z,99704.16
2022-11-27T01:29:09.508Z,99696.19
2022-11-27T01:31:36.596Z,99695.91
2022-11-27T01:34:12.735Z,99690.41
2022-11-27T01:36:39.387Z,99685.75
2022-11-27T01:39:05.959Z,99684.91
2022-11-27T01:41:36.401Z,99682.00
2022-11-27T01:44:24.895Z,99669.81
2022-11-27T01:47:20.996Z,99671.16
2022-11-27T01:49:54.044Z,99671.94
2022-11-27T01:52:26.748Z,99673.84
2022-11-27T01:55:26.039Z,99671.16
2022-11-27T01:57:59.312Z,99665.88
2022-11-27T02:00:26.261Z,99657.06
2022-11-27T02:02:52.965Z,99651.13
2022-11-27T02:05:23.432Z,99655.63
2022-11-27T02:07:51.114Z,99655.13
2022-11-27T02:10:18.360Z,99657.00
2022-11-27T02:13:14.668Z,99653.97
2022-11-27T02:15:41.166Z,99645.66
2022-11-27T02:18:45.477Z,99644.44
2022-11-27T02:21:42.993Z,99636.75
2022-11-27T02:24:38.227Z,99639.94
2022-11-27T02:27:12.000Z,99629.19
2022-11-27T02:29:40.969Z,99642.97
2022-11-27T02:32:12.980Z,99635.88
2022-11-27T02:34:45.420Z,99633.13
2022-11-27T02:37:36.553Z,99631.41
2022-11-27T02:40:07.853Z,99643.66
2022-11-27T02:42:43.621Z,99629.91
2022-11-27T02:45:14.874Z,99636.13
2022-11-27T02:47:44.917Z,99630.06
2022-11-27T02:50:17.343Z,99624.00
2022-11-27T02:52:45.964Z,99620.31
2022-11-27T02:55:17.233Z,99617.09
2022-11-27T02:57:45.693Z,99627.31
2022-11-27T03:00:13.078Z,99621.97
2022-11-27T03:02:44.476Z,99626.25
2022-11-27T03:05:15.279Z,99631.41
2022-11-27T03:07:49.848Z,99627.81
2022-11-27T03:10:21.855Z,99627.88
2022-11-27T03:12:49.112Z,99616.09
2022-11-27T03:15:16.069Z,99617.66
2022-11-27T03:18:17.015Z,99609.19
2022-11-27T03:20:49.193Z,99599.53
2022-11-27T03:23:15.855Z,99590.78
2022-11-27T03:25:42.465Z,99589.13
2022-11-27T03:28:12.362Z,99589.13
2022-11-27T03:30:40.658Z,99585.81
2022-11-27T03:33:25.168Z,99582.09
2022-11-27T03:35:52.707Z,99585.94
2022-11-27T03:38:19.394Z,99577.25
2022-11-27T03:40:58.021Z,99582.66
2022-11-27T03:43:29.845Z,99583.53
2022-11-27T03:46:01.536Z,99583.09
2022-11-27T03:48:43.428Z,99587.19
2022-11-27T03:51:37.178Z,99584.81
2022-11-27T03:54:13.263Z,99575.09
2022-11-27T03:56:53.458Z,99574.00
2022-11-27T03:59:25.516Z,99573.13
2022-11-27T04:01:52.287Z,99577.28
2022-11-27T04:04:18.981Z,99580.72
2022-11-27T04:06:45.613Z,99590.75
2022-11-27T04:09:12.217Z,99587.03
2022-11-27T04:11:38.786Z,99579.94
2022-11-27T04:14:06.128Z,99584.19
2022-11-27T04:16:32.810Z,99572.97
2022-11-27T04:18:59.416Z,99583.09
2022-11-27T04:21:26.098Z,99574.28
2022-11-27T04:23:52.658Z,99576.25
2022-11-27T04:26:19.253Z,99579.06
2022-11-27T04:28:45.836Z,99573.16
2022-11-27T04:31:12.487Z,99575.56
2022-11-27T04:33:39.116Z,99570.47
2022-11-27T04:36:06.105Z,99566.66
2022-11-27T04:38:32.705Z,99574.28
2022-11-27T04:40:59.431Z,99567.31
2022-11-27T04:43:26.005Z,99570.59
2022-11-27T04:45:52.635Z,99573.28
2022-11-27T04:48:19.301Z,99565.50
2022-11-27T04:50:45.982Z,99567.13
2022-11-27T04:53:12.622Z,99560.13
2022-11-27T04:55:39.329Z,99563.41
2022-11-27T04:58:05.887Z,99570.53
2022-11-27T05:00:32.571Z,99575.50
2022-11-27T05:02:59.403Z,99569.19
2022-11-27T05:05:26.106Z,99572.88
2022-11-27T05:07:54.274Z,99579.66
2022-11-27T05:10:20.885Z,99572.38
2022-11-27T05:12:47.512Z,99568.59
2022-11-27T05:15:14.120Z,99571.75
2022-11-27T05:17:40.705Z,99578.34
2022-11-27T05:20:07.965Z,99578.88
2022-11-27T05:22:34.607Z,99570.63
2022-11-27T05:25:01.878Z,99578.63
2022-11-27T05:27:28.550Z,99569.59
2022-11-27T05:29:55.268Z,99570.38
2022-11-27T05:32:21.846Z,99567.44
2022-11-27T05:34:49.766Z,99568.03
2022-11-27T05:37:19.786Z,99571.25
2022-11-27T05:39:46.987Z,99573.66
2022-11-27T05:42:13.549Z,99572.19
2022-11-27T05:44:40.450Z,99568.66
2022-11-27T05:47:07.272Z,99561.41
2022-11-27T05:49:34.057Z,99562.75
2022-11-27T05:52:00.607Z,99561.66
2022-11-27T05:54:27.218Z,99558.47
2022-11-27T05:56:53.832Z,99559.78
2022-11-27T05:59:20.387Z,99554.13
2022-11-27T06:01:49.323Z,99558.66
2022-11-27T06:04:16.172Z,99554.47
2022-11-27T06:06:42.925Z,99544.00
2022-11-27T06:09:13.159Z,99545.66
2022-11-27T06:11:40.830Z,99543.94
2022-11-27T06:14:08.951Z,99542.03
2022-11-27T06:16:35.952Z,99529.94
2022-11-27T06:19:02.917Z,99524.53
2022-11-27T06:21:29.485Z,99533.13
2022-11-27T06:23:56.865Z,99531.88
2022-11-27T06:26:29.520Z,99530.94
2022-11-27T06:28:57.717Z,99520.47
2022-11-27T06:31:30.623Z,99519.00
2022-11-27T06:33:57.703Z,99518.75
2022-11-27T06:36:31.510Z,99520.59
2022-11-27T06:38:58.207Z,99513.00
2022-11-27T06:41:27.232Z,99509.78
2022-11-27T06:43:55.099Z,99495.91
2022-11-27T06:46:23.390Z,99498.22
2022-11-27T06:48:52.378Z,99504.25
2022-11-27T06:51:21.788Z,99489.84
2022-11-27T06:53:48.826Z,99495.25
2022-11-27T06:56:21.632Z,99507.28
2022-11-27T06:58:54.942Z,99492.63
2022-11-27T07:01:23.074Z,99497.34
2022-11-27T07:03:49.706Z,99489.72
2022-11-27T07:06:21.894Z,99490.16
2022-11-27T07:08:48.580Z,99483.19
2022-11-27T07:11:18.449Z,99471.97
2022-11-27T07:13:49.468Z,99476.41
2022-11-27T07:16:16.948Z,99478.38
2022-11-27T07:18:46.882Z,99470.16
2022-11-27T07:21:14.077Z,99465.97
2022-11-27T07:23:41.003Z,99465.13
2022-11-27T07:26:19.632Z,99466.78
2022-11-27T07:28:46.927Z,99474.75
2022-11-27T07:31:17.047Z,99471.22
2022-11-27T07:33:43.936Z,99474.78
2022-11-27T07:36:22.404Z,99468.59
2022-11-27T07:38:49.593Z,99470.44
2022-11-27T07:41:17.152Z,99474.75
2022-11-27T07:43:45.443Z,99464.91
2022-11-27T07:46:20.871Z,99464.03
2022-11-27T07:48:47.591Z,99457.97
2022-11-27T07:51:16.791Z,99454.56
2022-11-27T07:53:43.917Z,99452.84
2022-11-27T07:56:14.723Z,99449.41
2022-11-27T07:58:41.427Z,99437.50
2022-11-27T08:01:10.035Z,99433.44
2022-11-27T08:03:37.965Z,99435.94
2022-11-27T08:06:05.274Z,99425.75
2022-11-27T08:08:33.446Z,99430.06
2022-11-27T08:10:59.995Z,99432.81
2022-11-27T08:13:26.632Z,99431.03
2022-11-27T08:15:53.321Z,99425.88
2022-11-27T08:18:19.923Z,99432.94
2022-11-27T08:20:46.588Z,99421.00
2022-11-27T08:23:13.193Z,99412.66
2022-11-27T08:25:39.887Z,99409.63
2022-11-27T08:28:06.516Z,99410.81
2022-11-27T08:30:33.152Z,99408.63
2022-11-27T08:32:59.725Z,99402.88
2022-11-27T08:35:26.380Z,99390.09
2022-11-27T08:37:53.136Z,99389.47
2022-11-27T08:40:19.888Z,99388.84
2022-11-27T08:42:46.508Z,99389.16
2022-11-27T08:45:13.236Z,99386.78
2022-11-27T08:47:39.980Z,99392.28
2022-11-27T08:50:07.338Z,99393.25
2022-11-27T08:52:33.993Z,99390.06
2022-11-27T08:55:00.625Z,99384.28
2022-11-27T08:57:27.223Z,99387.09
2022-11-27T08:59:53.870Z,99381.25
2022-11-27T09:02:20.540Z,99386.69
2022-11-27T09:04:47.181Z,99388.59
2022-11-27T09:07:15.553Z,99388.56
2022-11-27T09:09:42.229Z,99392.19
2022-11-27T09:12:08.806Z,99388.75
2022-11-27T09:14:35.419Z,99384.41
2022-11-27T09:17:02.201Z,99387.03
2022-11-27T09:19:28.968Z,99387.06
2022-11-27T09:21:56.340Z,99387.91
2022-11-27T09:24:23.015Z,99392.25
2022-11-27T09:26:49.593Z,99390.53
2022-11-27T09:29:16.212Z,99393.09
2022-11-27T09:31:42.849Z,99404.44
2022-11-27T09:34:09.578Z,99394.88
2022-11-27T09:36:36.480Z,99386.16
2022-11-27T09:39:03.903Z,99388.78
2022-11-27T09:41:42.573Z,99387.03
2022-11-27T09:44:23.710Z,99376.34
2022-11-27T09:46:51.361Z,99379.72
2022-11-27T09:49:35.454Z,99366.59
2022-11-27T09:52:23.773Z,99367.53
2022-11-27T09:55:01.752Z,99364.97
2022-11-27T09:57:33.348Z,99365.91
2022-11-27T10:00:07.402Z,99362.50
2022-11-27T10:02:35.431Z,99369.53
2022-11-27T10:05:15.462Z,99357.31
2022-11-27T10:08:10.077Z,99353.69
2022-11-27T10:11:01.769Z,99351.09
2022-11-27T10:13:31.341Z,99356.38
2022-11-27T10:16:09.341Z,99340.69
2022-11-27T10:18:46.702Z,99336.31
2022-11-27T10:21:40.931Z,99327.56
2022-11-27T10:24:19.244Z,99322.34
2022-11-27T10:26:48.558Z,99314.41
2022-11-27T10:29:30.904Z,99304.66
2022-11-27T10:32:04.320Z,99295.78
2022-11-27T10:34:30.915Z,99285.16
2022-11-27T10:37:01.025Z,99284.25
2022-11-27T10:39:41.781Z,99285.09
2022-11-27T10:42:21.060Z,99269.53
2022-11-27T10:44:53.679Z,99266.19
2022-11-27T10:47:23.238Z,99260.06
2022-11-27T10:49:50.072Z,99253.94
2022-11-27T10:52:19.343Z,99262.75
2022-11-27T10:54:53.116Z,99262.81
2022-11-27T10:57:22.649Z,99260.22
2022-11-27T10:59:55.339Z,99259.28
2022-11-27T11:02:28.076Z,99261.91
2022-11-27T11:05:24.226Z,99249.72
2022-11-27T11:07:41.755Z,99249.66
2022-11-27T11:10:26.484Z,99252.41
2022-11-27T11:13:11.792Z,99250.75
2022-11-27T11:16:04.793Z,99248.94
2022-11-27T11:18:35.149Z,99240.22
2022-11-27T11:21:07.181Z,99230.53
2022-11-27T11:23:40.380Z,99220.03
2022-11-27T11:26:32.384Z,99219.16
2022-11-27T11:29:02.129Z,99225.28
2022-11-27T11:31:37.012Z,99221.78
2022-11-27T11:34:23.958Z,99223.56
2022-11-27T11:36:58.748Z,99217.50
2022-11-27T11:39:31.982Z,99218.34
2022-11-27T11:41:59.087Z,99205.19
2022-11-27T11:44:35.577Z,99222.72
2022-11-27T11:47:02.432Z,99227.97
2022-11-27T11:49:33.490Z,99234.91
2022-11-27T11:52:22.235Z,99232.19
2022-11-27T11:54:49.690Z,99229.50
2022-11-27T11:57:25.562Z,99232.94
2022-11-27T11:59:52.074Z,99216.28
2022-11-27T12:02:50.359Z,99213.75
2022-11-27T12:05:26.040Z,99222.44
2022-11-27T12:08:15.521Z,99214.53
2022-11-27T12:11:03.258Z,99203.19
2022-11-27T12:13:54.569Z,99195.34
2022-11-27T12:16:50.514Z,99184.94
2022-11-27T12:19:25.952Z,99177.84
2022-11-27T12:22:37.415Z,99182.25
2022-11-27T12:25:10.086Z,99181.44
2022-11-27T12:28:03.446Z,99167.50
2022-11-27T12:30:58.907Z,99151.88
2022-11-27T12:33:38.318Z,99147.53
2022-11-27T12:36:18.193Z,99135.19
2022-11-27T12:38:59.980Z,99141.44
2022-11-27T12:41:59.148Z,99141.47
2022-11-27T12:44:51.589Z,99146.69
2022-11-27T12:47:18.214Z,99137.06
2022-11-27T12:49:49.379Z,99138.78
2022-11-27T12:52:22.581Z,99136.16
2022-11-27T12:54:58.702Z,99136.28
2022-11-27T12:57:39.526Z,99120.56
2022-11-27T13:00:14.711Z,99135.34
2022-11-27T13:02:49.966Z,99130.13
2022-11-27T13:05:22.835Z,99122.34
2022-11-27T13:07:55.767Z,99124.94
2022-11-27T13:10:38.371Z,99116.22
2022-11-27T13:13:10.331Z,99116.19
2022-11-27T13:15:54.917Z,99116.16
2022-11-27T13:18:30.419Z,99102.16
2022-11-27T13:21:01.285Z,99113.63
2022-11-27T13:23:32.935Z,99099.66
2022-11-27T13:26:05.489Z,99100.53
2022-11-27T13:28:46.431Z,99087.44
2022-11-27T13:31:27.157Z,99088.34
2022-11-27T13:34:00.561Z,99092.69
2022-11-27T13:36:37.241Z,99080.47
2022-11-27T13:39:04.024Z,99071.81
2022-11-27T13:41:40.299Z,99071.84
2022-11-27T13:44:27.921Z,99064.88
2022-11-27T13:47:04.462Z,99070.13
2022-11-27T13:49:34.070Z,99071.00
2022-11-27T13:52:11.761Z,99067.56
2022-11-27T13:54:39.413Z,99072.00
2022-11-27T13:57:17.618Z,99071.97
2022-11-27T14:00:00.064Z,99072.91
2022-11-27T14:02:44.226Z,99072.91
2022-11-27T14:05:12.951Z,99072.03
2022-11-27T14:07:43.445Z,99064.19
2022-11-27T14:10:15.722Z,99069.44
2022-11-27T14:12:54.831Z,99057.25
2022-11-27T14:15:25.526Z,99058.09
2022-11-27T14:18:04.440Z,99043.28
2022-11-27T14:20:35.144Z,99034.56
2022-11-27T14:23:17.277Z,99045.03
2022-11-27T14:25:43.910Z,99039.81
2022-11-27T14:28:26.036Z,99044.19
2022-11-27T14:30:56.949Z,99045.06
2022-11-27T14:33:28.464Z,99045.94
2022-11-27T14:35:57.337Z,99040.72
2022-11-27T14:38:25.688Z,99043.34
2022-11-27T14:40:54.166Z,99036.41
2022-11-27T14:43:28.277Z,99035.56
2022-11-27T14:46:01.409Z,99017.25
2022-11-27T14:48:34.411Z,99008.53
2022-11-27T14:51:01.664Z,99007.69
2022-11-27T14:53:29.303Z,99017.31
2022-11-27T14:55:58.486Z,99009.44
2022-11-27T14:58:28.542Z,99010.31
2022-11-27T15:01:07.200Z,99005.09
2022-11-27T15:03:34.626Z,98997.28
2022-11-27T15:06:07.619Z,98999.03
2022-11-27T15:08:37.850Z,98992.97
2022-11-27T15:11:05.907Z,98992.94
2022-11-27T15:13:36.677Z,98985.97
2022-11-27T15:16:14.801Z,98985.97
2022-11-27T15:18:43.161Z,98980.75
2022-11-27T15:21:12.864Z,98970.28
2022-11-27T15:23:46.261Z,98970.28
2022-11-27T15:26:28.587Z,98967.69
2022-11-27T15:28:57.446Z,98965.09
2022-11-27T15:31:33.237Z,98961.59
2022-11-27T15:34:13.576Z,98945.06
2022-11-27T15:37:03.888Z,98945.94
2022-11-27T15:39:51.807Z,98942.44
2022-11-27T15:42:20.061Z,98934.63
2022-11-27T15:44:48.083Z,98932.00
2022-11-27T15:47:33.195Z,98932.00
2022-11-27T15:50:00.197Z,98916.31
2022-11-27T15:52:27.520Z,98921.53
2022-11-27T15:54:55.358Z,98912.88
2022-11-27T15:57:22.185Z,98905.03
2022-11-27T15:59:48.871Z,98904.16
2022-11-27T16:02:18.033Z,98894.59
2022-11-27T16:04:45.197Z,98887.63
2022-11-27T16:07:11.898Z,98891.97
2022-11-27T16:09:39.773Z,98885.03
2022-11-27T16:12:06.919Z,98885.03
2022-11-27T16:14:33.571Z,98885.03
2022-11-27T16:17:01.568Z,98877.19
2022-11-27T16:19:28.776Z,98872.84
2022-11-27T16:21:55.484Z,98871.09
2022-11-27T16:24:22.001Z,98873.72
2022-11-27T16:26:48.699Z,98872.84
2022-11-27T16:29:15.412Z,98862.38
2022-11-27T16:31:42.065Z,98860.66
2022-11-27T16:34:11.590Z,98871.03
2022-11-27T16:36:41.439Z,98864.09
2022-11-27T16:39:08.068Z,98860.63
2022-11-27T16:41:34.800Z,98863.28
2022-11-27T16:44:01.512Z,98865.00
2022-11-27T16:46:30.390Z,98859.78
2022-11-27T16:48:59.224Z,98873.66
2022-11-27T16:51:28.762Z,98869.28
2022-11-27T16:53:57.208Z,98869.25
2022-11-27T16:56:26.371Z,98870.16
2022-11-27T16:58:56.736Z,98868.38
2022-11-27T17:01:29.967Z,98873.59
2022-11-27T17:03:57.396Z,98871.00
2022-11-27T17:06:30.038Z,98877.09
2022-11-27T17:08:59.176Z,98870.13
2022-11-27T17:11:28.959Z,98875.34
2022-11-27T17:14:01.476Z,98872.75
2022-11-27T17:16:28.787Z,98874.47
2022-11-27T17:18:55.647Z,98870.13
2022-11-27T17:21:25.322Z,98867.50
2022-11-27T17:23:55.277Z,98865.75
2022-11-27T17:26:23.695Z,98864.88
2022-11-27T17:28:50.693Z,98869.22
2022-11-27T17:31:19.742Z,98856.19
2022-11-27T17:33:47.568Z,98857.91
2022-11-27T17:36:15.749Z,98860.53
2022-11-27T17:38:42.328Z,98862.25
2022-11-27T17:41:11.509Z,98854.44
2022-11-27T17:43:39.453Z,98850.09
2022-11-27T17:46:21.577Z,98864.00
2022-11-27T17:48:48.203Z,98848.34
2022-11-27T17:51:15.125Z,98850.97
2022-11-27T17:53:41.713Z,98854.47
2022-11-27T17:56:10.706Z,98851.00
2022-11-27T17:58:37.801Z,98846.59
2022-11-27T18:01:06.172Z,98841.38
2022-11-27T18:03:33.850Z,98840.50
2022-11-27T18:06:05.223Z,98843.09
2022-11-27T18:08:32.858Z,98839.63
2022-11-27T18:11:06.770Z,98832.69
2022-11-27T18:13:33.543Z,98826.56
2022-11-27T18:16:24.723Z,98832.63
2022-11-27T18:18:51.713Z,98819.59
2022-11-27T18:21:20.614Z,98819.59
2022-11-27T18:24:21.410Z,98819.63
2022-11-27T18:27:06.599Z,98815.25
2022-11-27T18:29:23.588Z,98811.78
2022-11-27T18:31:51.180Z,98810.03
2022-11-27T18:34:18.155Z,98811.78
2022-11-27T18:36:46.024Z,98810.00
2022-11-27T18:39:13.075Z,98797.88
2022-11-27T18:41:40.215Z,98791.78
2022-11-27T18:44:06.803Z,98789.19
2022-11-27T18:46:33.835Z,98790.06
2022-11-27T18:49:00.451Z,98783.13
2022-11-27T18:51:27.118Z,98790.03
2022-11-27T18:53:54.693Z,98778.75
2022-11-27T18:56:27.150Z,98785.66
2022-11-27T18:58:54.221Z,98775.22
2022-11-27T19:01:23.798Z,98777.84
2022-11-27T19:03:50.772Z,98771.78
2022-11-27T19:06:20.066Z,98771.78
2022-11-27T19:08:47.184Z,98775.22
2022-11-27T19:11:17.931Z,98766.53
2022-11-27T19:13:45.702Z,98769.16
2022-11-27T19:16:15.514Z,98770.00
2022-11-27T19:18:43.023Z,98763.09
2022-11-27T19:21:14.490Z,98760.53
2022-11-27T19:23:41.514Z,98755.28
2022-11-27T19:26:14.190Z,98750.06
2022-11-27T19:28:41.320Z,98743.97
2022-11-27T19:31:10.693Z,98741.34
2022-11-27T19:33:37.885Z,98744.84
2022-11-27T19:36:08.661Z,98750.91
2022-11-27T19:38:36.167Z,98750.88
2022-11-27T19:41:04.419Z,98748.31
2022-11-27T19:43:31.150Z,98742.22
2022-11-27T19:45:58.290Z,98736.09
2022-11-27T19:48:24.954Z,98728.34
2022-11-27T19:50:52.003Z,98723.16
2022-11-27T19:53:18.974Z,98716.16
2022-11-27T19:55:53.361Z,98709.22
2022-11-27T19:58:20.000Z,98705.75
2022-11-27T20:00:46.889Z,98707.47
2022-11-27T20:03:13.502Z,98707.50
2022-11-27T20:05:40.099Z,98702.31
2022-11-27T20:08:06.710Z,98707.50
2022-11-27T20:10:33.314Z,98716.16
2022-11-27T20:13:01.637Z,98708.34
2022-11-27T20:15:28.759Z,98710.09
2022-11-27T20:17:55.684Z,98702.31
2022-11-27T20:20:22.272Z,98703.16
2022-11-27T20:22:50.353Z,98695.34
2022-11-27T20:25:20.009Z,98697.94
2022-11-27T20:27:47.190Z,98691.84
2022-11-27T20:30:13.987Z,98684.06
2022-11-27T20:32:40.744Z,98683.16
2022-11-27T20:35:07.750Z,98683.16
2022-11-27T20:37:35.048Z,98681.41
2022-11-27T20:40:01.767Z,98679.66
2022-11-27T20:42:28.439Z,98679.66
2022-11-27T20:44:55.023Z,98672.72
2022-11-27T20:47:21.590Z,98669.28
2022-11-27T20:49:48.233Z,98658.84
2022-11-27T20:52:14.970Z,98667.53
2022-11-27T20:54:41.585Z,98659.69
2022-11-27T20:57:14.047Z,98662.31
2022-11-27T20:59:41.736Z,98664.06
2022-11-27T21:02:12.262Z,98670.13
2022-11-27T21:04:39.010Z,98669.25
2022-11-27T21:07:05.708Z,98663.19
2022-11-27T21:09:32.730Z,98664.09
2022-11-27T21:11:59.667Z,98666.72
2022-11-27T21:14:26.279Z,98664.94
2022-11-27T21:16:53.977Z,98657.13
2022-11-27T21:19:24.447Z,98658.88
2022-11-27T21:21:52.380Z,98657.13
2022-11-27T21:24:20.492Z,98656.28
2022-11-27T21:26:48.301Z,98648.50
2022-11-27T21:29:15.632Z,98641.50
2022-11-27T21:31:46.388Z,98641.50
2022-11-27T21:34:16.281Z,98631.09
2022-11-27T21:36:42.822Z,98633.72
2022-11-27T21:39:12.144Z,98625.03
2022-11-27T21:41:38.699Z,98625.06
2022-11-27T21:44:05.595Z,98618.09
2022-11-27T21:46:32.475Z,98613.78
2022-11-27T21:49:00.970Z,98604.22
2022-11-27T21:51:29.226Z,98599.03
2022-11-27T21:53:57.079Z,98598.16
2022-11-27T21:56:26.341Z,98599.03
2022-11-27T21:58:52.974Z,98586.88
2022-11-27T22:01:22.325Z,98577.31
2022-11-27T22:03:51.566Z,98568.63
2022-11-27T22:06:18.898Z,98566.03
2022-11-27T22:08:47.181Z,98559.06
2022-11-27T22:11:28.864Z,98563.44
2022-11-27T22:13:56.396Z,98554.75
2022-11-27T22:16:24.509Z,98541.72
2022-11-27T22:18:53.761Z,98540.88
2022-11-27T22:21:20.437Z,98540.84
2022-11-27T22:23:47.174Z,98548.69
2022-11-27T22:26:19.285Z,98542.63
2022-11-27T22:28:46.419Z,98538.28
2022-11-27T22:31:21.687Z,98544.34
2022-11-27T22:33:48.733Z,98547.81
2022-11-27T22:36:17.027Z,98547.81
2022-11-27T22:38:45.092Z,98542.59
2022-11-27T22:41:12.360Z,98538.25
2022-11-27T22:43:39.549Z,98528.72
2022-11-27T22:46:08.729Z,98533.06
2022-11-27T22:48:35.351Z,98540.88
2022-11-27T22:51:02.091Z,98537.41
2022-11-27T22:53:28.857Z,98544.31
2022-11-27T22:55:55.705Z,98537.38
2022-11-27T22:58:22.749Z,98535.63
2022-11-27T23:00:56.506Z,98541.75
2022-11-27T23:03:23.583Z,98540.84
2022-11-27T23:05:50.455Z,98533.03
2022-11-27T23:08:18.956Z,98533.91
2022-11-27T23:10:47.382Z,98533.91
2022-11-27T23:13:15.229Z,98535.63
2022-11-27T23:15:42.679Z,98534.78
2022-11-27T23:18:09.798Z,98537.38
2022-11-27T23:20:43.651Z,98521.75
2022-11-27T23:23:11.112Z,98532.16
2022-11-27T23:25:38.699Z,98525.22
2022-11-27T23:28:05.688Z,98515.66
2022-11-27T23:30:33.783Z,98523.44
2022-11-27T23:33:00.457Z,98516.50
2022-11-27T23:35:27.167Z,98512.19
2022-11-27T23:37:53.823Z,98514.75
2022-11-27T23:40:20.498Z,98499.97
2022-11-27T23:42:47.168Z,98509.53
2022-11-27T23:45:13.824Z,98493.94
2022-11-27T23:47:40.590Z,98498.25
2022-11-27T23:50:07.835Z,98500.00
2022-11-27T23:52:34.597Z,98497.38
2022-11-27T23:55:01.442Z,98492.22
2022-11-27T23:57:28.069Z,98477.44
2022-11-27T23:59:54.619Z,98488.72
